createdAt,value
2019-03-23T00:02:04.796Z,84.90
2019-03-23T00:04:33.338Z,77.63
2019-03-23T00:07:01.895Z,77.17
2019-03-23T00:09:30.486Z,82.37
2019-03-23T00:11:59.170Z,107.27
2019-03-23T00:14:27.722Z,115.97
2019-03-23T00:16:56.291Z,106.77
2019-03-23T00:19:24.842Z,113.57
2019-03-23T00:21:53.455Z,129.17
2019-03-23T00:24:22.105Z,121.73
2019-03-23T00:26:50.578Z,131.80
2019-03-23T00:29:19.127Z,119.60
2019-03-23T00:32:07.197Z,121.47
2019-03-23T00:34:35.737Z,112.03
2019-03-23T00:37:04.278Z,112.17
2019-03-23T00:39:32.854Z,126.20
2019-03-23T00:42:01.403Z,119.93
2019-03-23T00:44:29.950Z,129.57
2019-03-23T00:46:58.598Z,118.63
2019-03-23T00:49:27.146Z,123.90
2019-03-23T00:51:55.693Z,117.27
2019-03-23T00:54:24.275Z,104.33
2019-03-23T00:56:52.821Z,108.77
2019-03-23T00:59:21.299Z,117.37
2019-03-23T01:01:49.769Z,132.97
2019-03-23T01:04:18.238Z,104.63
2019-03-23T01:06:52.018Z,106.07
2019-03-23T01:09:17.025Z,101.57
2019-03-23T01:11:45.577Z,110.80
2019-03-23T01:14:14.153Z,114.47
2019-03-23T01:16:42.625Z,123.07
2019-03-23T01:19:11.173Z,124.47
2019-03-23T01:21:39.741Z,112.63
2019-03-23T01:24:08.368Z,112.40
2019-03-23T01:26:36.901Z,111.83
2019-03-23T01:29:05.426Z,104.80
2019-03-23T01:31:34.050Z,123.70
2019-03-23T01:34:02.658Z,125.77
2019-03-23T01:36:31.407Z,132.30
2019-03-23T01:39:00.021Z,141.27
2019-03-23T01:41:28.489Z,168.23
2019-03-23T01:43:56.996Z,179.97
2019-03-23T01:46:25.605Z,185.07
2019-03-23T01:48:54.152Z,182.13
2019-03-23T01:51:22.653Z,196.77
2019-03-23T01:53:51.190Z,179.07
2019-03-23T01:56:19.666Z,148.97
2019-03-23T01:58:48.333Z,161.70
2019-03-23T02:01:16.944Z,170.83
2019-03-23T02:03:45.565Z,170.67
2019-03-23T02:06:14.140Z,181.77
2019-03-23T02:08:42.619Z,165.10
2019-03-23T02:11:12.301Z,165.00
2019-03-23T02:13:40.943Z,186.57
2019-03-23T02:16:09.414Z,171.60
2019-03-23T02:18:37.966Z,182.33
2019-03-23T02:21:06.705Z,189.13
2019-03-23T02:23:35.264Z,156.27
2019-03-23T02:26:04.014Z,162.43
2019-03-23T02:28:32.545Z,159.87
2019-03-23T02:31:01.169Z,173.00
2019-03-23T02:33:29.715Z,182.93
2019-03-23T02:35:59.119Z,184.20
2019-03-23T02:38:27.594Z,182.43
2019-03-23T02:40:56.213Z,194.87
2019-03-23T02:43:24.789Z,208.77
2019-03-23T02:45:53.336Z,222.00
2019-03-23T02:48:21.885Z,221.17
2019-03-23T02:50:50.466Z,236.40
2019-03-23T02:53:18.998Z,253.50
2019-03-23T02:55:47.554Z,247.07
2019-03-23T02:58:16.193Z,253.83
2019-03-23T03:00:44.660Z,235.33
2019-03-23T03:03:13.215Z,258.03
2019-03-23T03:05:41.792Z,247.33
2019-03-23T03:08:10.339Z,269.30
2019-03-23T03:10:39.450Z,256.97
2019-03-23T03:13:08.271Z,257.07
2019-03-23T03:15:36.993Z,251.50
2019-03-23T03:18:07.074Z,248.20
2019-03-23T03:20:35.629Z,221.17
2019-03-23T03:23:04.421Z,249.70
2019-03-23T03:25:32.994Z,215.73
2019-03-23T03:28:01.538Z,231.83
2019-03-23T03:30:30.157Z,247.37
2019-03-23T03:32:58.834Z,259.37
2019-03-23T03:35:27.446Z,262.33
2019-03-23T03:37:57.254Z,269.43
2019-03-23T03:40:26.200Z,234.57
2019-03-23T03:42:54.816Z,282.90
2019-03-23T03:45:27.775Z,275.77
2019-03-23T03:47:56.485Z,297.40
2019-03-23T03:50:25.106Z,291.60
2019-03-23T03:52:53.682Z,287.27
2019-03-23T03:55:22.907Z,288.63
2019-03-23T03:57:52.635Z,285.37
2019-03-23T04:00:22.203Z,281.90
2019-03-23T04:02:50.796Z,308.50
2019-03-23T04:05:19.426Z,282.87
2019-03-23T04:07:49.546Z,293.73
2019-03-23T04:10:18.114Z,302.43
2019-03-23T04:12:46.731Z,291.40
2019-03-23T04:15:15.491Z,292.57
2019-03-23T04:17:44.094Z,268.53
2019-03-23T04:20:12.999Z,276.13
2019-03-23T04:22:41.599Z,273.30
2019-03-23T04:25:10.952Z,278.53
2019-03-23T04:27:39.641Z,287.47
2019-03-23T04:30:10.293Z,283.53
2019-03-23T04:32:38.947Z,272.53
2019-03-23T04:35:08.298Z,308.47
2019-03-23T04:37:36.863Z,266.07
2019-03-23T04:40:10.394Z,283.03
2019-03-23T04:42:39.037Z,261.33
2019-03-23T04:45:09.748Z,256.57
2019-03-23T04:47:38.298Z,265.50
2019-03-23T04:50:09.421Z,264.70
2019-03-23T04:52:38.040Z,275.77
2019-03-23T04:55:13.306Z,297.53
2019-03-23T04:57:41.995Z,283.37
2019-03-23T05:00:16.008Z,246.60
2019-03-23T05:02:44.596Z,274.13
2019-03-23T05:05:13.279Z,267.97
2019-03-23T05:07:41.897Z,257.83
2019-03-23T05:10:12.024Z,286.10
2019-03-23T05:12:40.736Z,288.63
2019-03-23T05:15:09.421Z,248.43
2019-03-23T05:17:37.978Z,271.83
2019-03-23T05:20:08.793Z,281.63
2019-03-23T05:22:37.336Z,256.63
2019-03-23T05:25:06.418Z,249.83
2019-03-23T05:27:35.089Z,222.40
2019-03-23T05:30:05.506Z,228.10
2019-03-23T05:32:35.047Z,214.50
2019-03-23T05:35:04.873Z,243.30
2019-03-23T05:37:34.687Z,230.77
2019-03-23T05:40:03.994Z,244.37
2019-03-23T05:42:32.561Z,256.93
2019-03-23T05:45:01.030Z,242.63
2019-03-23T05:47:29.581Z,255.77
2019-03-23T05:49:58.215Z,241.43
2019-03-23T05:52:26.829Z,263.70
2019-03-23T05:54:55.303Z,274.43
2019-03-23T05:57:23.921Z,264.80
2019-03-23T05:59:52.470Z,268.00
2019-03-23T06:02:21.094Z,264.57
2019-03-23T06:04:49.648Z,242.77
2019-03-23T06:07:18.365Z,256.90
2019-03-23T06:09:46.841Z,228.77
2019-03-23T06:12:17.559Z,234.77
2019-03-23T06:14:45.611Z,218.27
2019-03-23T06:17:14.161Z,217.60
2019-03-23T06:19:42.635Z,221.20
2019-03-23T06:22:11.213Z,201.03
2019-03-23T06:24:39.744Z,185.70
2019-03-23T06:27:08.213Z,177.17
2019-03-23T06:29:36.717Z,174.53
2019-03-23T06:32:05.336Z,166.70
2019-03-23T06:34:33.887Z,169.33
2019-03-23T06:37:02.458Z,140.80
2019-03-23T06:39:31.012Z,139.47
2019-03-23T06:41:59.618Z,137.27
2019-03-23T06:44:28.124Z,130.10
2019-03-23T06:46:56.602Z,125.37
2019-03-23T06:49:25.148Z,118.93
2019-03-23T06:51:53.649Z,115.97
2019-03-23T06:54:22.266Z,112.23
2019-03-23T06:56:50.814Z,113.60
2019-03-23T06:59:19.360Z,108.33
2019-03-23T07:01:47.911Z,109.80
2019-03-23T07:04:16.564Z,97.47
2019-03-23T07:06:45.178Z,99.60
2019-03-23T07:09:16.436Z,102.13
2019-03-23T07:11:43.966Z,105.10
2019-03-23T07:14:12.514Z,92.53
2019-03-23T07:16:41.052Z,95.10
2019-03-23T07:19:09.967Z,93.23
2019-03-23T07:21:38.573Z,96.37
2019-03-23T07:24:07.126Z,96.93
2019-03-23T07:26:35.708Z,93.63
2019-03-23T07:29:04.390Z,94.10
2019-03-23T07:31:32.912Z,93.17
2019-03-23T07:34:01.431Z,97.50
2019-03-23T07:36:29.990Z,91.93
2019-03-23T07:38:58.612Z,91.83
2019-03-23T07:41:27.155Z,92.40
2019-03-23T07:43:55.739Z,94.87
2019-03-23T07:46:24.354Z,90.43
2019-03-23T07:48:52.896Z,96.27
2019-03-23T07:51:21.468Z,89.73
2019-03-23T07:53:50.021Z,87.90
2019-03-23T07:56:18.625Z,89.70
2019-03-23T07:58:47.209Z,94.70
2019-03-23T08:01:15.758Z,91.27
2019-03-23T08:03:44.313Z,93.10
2019-03-23T08:06:12.961Z,95.53
2019-03-23T08:08:41.507Z,93.77
2019-03-23T08:11:10.058Z,88.30
2019-03-23T08:13:38.713Z,93.27
2019-03-23T08:16:07.259Z,94.63
2019-03-23T08:18:35.807Z,95.57
2019-03-23T08:21:04.473Z,95.03
2019-03-23T08:23:33.016Z,91.07
2019-03-23T08:26:01.636Z,85.37
2019-03-23T08:28:32.395Z,81.23
2019-03-23T08:31:00.490Z,81.67
2019-03-23T08:33:29.044Z,81.13
2019-03-23T08:35:57.699Z,80.20
2019-03-23T08:38:26.340Z,84.90
2019-03-23T08:40:56.510Z,88.93
2019-03-23T08:43:25.081Z,80.73
2019-03-23T08:45:53.563Z,78.40
2019-03-23T08:48:22.109Z,81.83
2019-03-23T08:50:50.609Z,83.07
2019-03-23T08:53:19.161Z,84.73
2019-03-23T08:55:47.778Z,81.80
2019-03-23T08:58:16.287Z,88.00
2019-03-23T09:00:44.840Z,84.10
2019-03-23T09:03:13.395Z,79.97
2019-03-23T09:05:42.004Z,72.23
2019-03-23T09:08:10.548Z,73.50
2019-03-23T09:10:39.104Z,77.13
2019-03-23T09:13:07.665Z,80.17
2019-03-23T09:15:36.275Z,74.70
2019-03-23T09:18:05.050Z,71.10
2019-03-23T09:20:33.604Z,74.30
2019-03-23T09:23:02.230Z,70.73
2019-03-23T09:25:30.868Z,71.07
2019-03-23T09:27:59.422Z,72.50
2019-03-23T09:30:28.029Z,70.70
2019-03-23T09:32:57.067Z,68.20
2019-03-23T09:35:25.581Z,73.13
2019-03-23T09:37:54.056Z,65.83
2019-03-23T09:40:22.577Z,69.77
2019-03-23T09:42:52.120Z,71.50
2019-03-23T09:45:20.660Z,70.43
2019-03-23T09:47:49.310Z,71.87
2019-03-23T09:50:17.862Z,77.97
2019-03-23T09:52:46.402Z,70.67
2019-03-23T09:55:14.913Z,74.03
2019-03-23T09:57:43.457Z,69.37
2019-03-23T10:00:12.862Z,70.10
2019-03-23T10:02:41.526Z,71.37
2019-03-23T10:05:10.211Z,71.77
2019-03-23T10:07:38.762Z,67.53
2019-03-23T10:10:07.957Z,69.87
2019-03-23T10:12:36.602Z,64.73
2019-03-23T10:15:07.695Z,63.57
2019-03-23T10:17:36.246Z,63.70
2019-03-23T10:20:06.963Z,68.07
2019-03-23T10:22:35.573Z,63.87
2019-03-23T10:25:05.786Z,60.40
2019-03-23T10:27:34.438Z,69.97
2019-03-23T10:30:03.824Z,69.67
2019-03-23T10:32:32.384Z,65.67
2019-03-23T10:35:01.099Z,64.83
2019-03-23T10:37:29.709Z,64.57
2019-03-23T10:39:58.254Z,61.83
2019-03-23T10:42:26.785Z,62.63
2019-03-23T10:44:55.333Z,61.17
2019-03-23T10:47:23.906Z,60.63
2019-03-23T10:49:52.529Z,55.37
2019-03-23T10:52:21.149Z,59.30
2019-03-23T10:54:49.705Z,60.33
2019-03-23T10:57:18.351Z,54.13
2019-03-23T10:59:46.903Z,55.37
2019-03-23T11:02:15.384Z,63.97
2019-03-23T11:04:43.946Z,60.80
2019-03-23T11:07:12.565Z,59.33
2019-03-23T11:09:42.114Z,58.57
2019-03-23T11:12:10.662Z,56.50
2019-03-23T11:14:39.270Z,60.17
2019-03-23T11:17:07.851Z,60.07
2019-03-23T11:19:36.406Z,56.27
2019-03-23T11:22:05.597Z,63.40
2019-03-23T11:24:34.111Z,58.40
2019-03-23T11:27:02.736Z,58.63
2019-03-23T11:29:31.280Z,58.73
2019-03-23T11:31:59.865Z,60.23
2019-03-23T11:34:28.479Z,58.57
2019-03-23T11:36:57.104Z,60.10
2019-03-23T11:39:25.692Z,62.90
2019-03-23T11:41:54.307Z,64.30
2019-03-23T11:44:22.855Z,58.20
2019-03-23T11:46:51.428Z,62.10
2019-03-23T11:49:19.911Z,58.28
2019-03-23T11:51:48.969Z,62.57
2019-03-23T11:54:17.521Z,60.67
2019-03-23T11:56:46.233Z,54.70
2019-03-23T11:59:14.874Z,60.80
2019-03-23T12:01:51.533Z,51.68
2019-03-23T12:04:13.685Z,51.50
2019-03-23T12:06:42.162Z,53.07
2019-03-23T12:09:10.710Z,57.70
2019-03-23T12:11:39.272Z,60.23
2019-03-23T12:14:07.953Z,59.27
2019-03-23T12:16:36.602Z,61.10
2019-03-23T12:19:05.151Z,55.20
2019-03-23T12:21:33.635Z,53.37
2019-03-23T12:24:02.228Z,48.45
2019-03-23T12:26:30.829Z,54.03
2019-03-23T12:28:59.448Z,52.85
2019-03-23T12:31:28.030Z,56.90
2019-03-23T12:33:56.578Z,51.23
2019-03-23T12:36:25.125Z,49.13
2019-03-23T12:38:53.625Z,51.50
2019-03-23T12:41:23.306Z,49.75
2019-03-23T12:43:55.168Z,51.18
2019-03-23T12:46:23.739Z,53.25
2019-03-23T12:48:52.286Z,53.58
2019-03-23T12:51:20.797Z,48.87
2019-03-23T12:53:49.418Z,54.25
2019-03-23T12:56:18.031Z,45.75
2019-03-23T12:58:46.606Z,41.77
2019-03-23T13:01:15.158Z,45.92
2019-03-23T13:03:43.706Z,44.42
2019-03-23T13:06:12.284Z,41.30
2019-03-23T13:08:40.829Z,42.48
2019-03-23T13:11:09.379Z,35.95
2019-03-23T13:13:37.962Z,31.33
2019-03-23T13:16:06.509Z,24.98
2019-03-23T13:18:34.980Z,24.40
2019-03-23T13:21:03.565Z,34.63
2019-03-23T13:23:32.170Z,29.25
2019-03-23T13:26:00.722Z,24.10
2019-03-23T13:28:29.277Z,29.52
2019-03-23T13:30:57.893Z,33.63
2019-03-23T13:33:26.464Z,27.87
2019-03-23T13:35:55.014Z,27.62
2019-03-23T13:38:23.573Z,28.42
2019-03-23T13:40:52.142Z,27.65
2019-03-23T13:43:20.693Z,29.15
2019-03-23T13:45:49.821Z,26.85
2019-03-23T13:48:20.041Z,27.17
2019-03-23T13:50:48.597Z,26.75
2019-03-23T13:53:17.143Z,28.15
2019-03-23T13:55:45.794Z,22.58
2019-03-23T13:58:15.081Z,22.22
2019-03-23T14:00:43.796Z,23.98
2019-03-23T14:03:12.614Z,25.25
2019-03-23T14:05:41.229Z,24.18
2019-03-23T14:08:09.925Z,25.00
2019-03-23T14:10:38.642Z,26.40
2019-03-23T14:13:07.266Z,21.70
2019-03-23T14:15:35.949Z,19.80
2019-03-23T14:18:04.693Z,20.02
2019-03-23T14:20:33.305Z,24.77
2019-03-23T14:23:02.896Z,19.05
2019-03-23T14:25:31.854Z,17.48
2019-03-23T14:28:00.413Z,20.35
2019-03-23T14:30:28.954Z,23.30
2019-03-23T14:32:57.540Z,22.10
2019-03-23T14:35:26.153Z,28.35
2019-03-23T14:37:54.705Z,22.07
2019-03-23T14:40:23.285Z,22.02
2019-03-23T14:42:51.959Z,14.68
2019-03-23T14:45:20.510Z,18.50
2019-03-23T14:47:49.891Z,14.33
2019-03-23T14:50:18.504Z,15.75
2019-03-23T14:52:47.052Z,14.75
2019-03-23T14:55:15.742Z,13.18
2019-03-23T14:57:44.210Z,15.00
2019-03-23T15:00:13.012Z,13.18
2019-03-23T15:02:41.587Z,13.48
2019-03-23T15:05:10.341Z,10.58
2019-03-23T15:07:38.895Z,14.20
2019-03-23T15:10:09.248Z,11.33
2019-03-23T15:12:37.798Z,12.28
2019-03-23T15:15:07.103Z,12.10
2019-03-23T15:17:35.645Z,16.23
2019-03-23T15:20:05.556Z,14.90
2019-03-23T15:22:34.183Z,17.57
2019-03-23T15:25:02.825Z,17.90
2019-03-23T15:27:31.377Z,13.53
2019-03-23T15:29:59.961Z,20.27
2019-03-23T15:32:28.507Z,15.08
2019-03-23T15:34:57.056Z,18.75
2019-03-23T15:37:25.680Z,16.03
2019-03-23T15:39:54.293Z,16.48
2019-03-23T15:42:24.986Z,15.87
2019-03-23T15:44:53.132Z,17.10
2019-03-23T15:47:21.674Z,14.03
2019-03-23T15:49:50.520Z,14.47
2019-03-23T15:52:19.168Z,14.27
2019-03-23T15:54:47.721Z,16.03
2019-03-23T15:57:16.275Z,16.10
2019-03-23T15:59:44.928Z,21.10
2019-03-23T16:02:13.616Z,30.43
2019-03-23T16:04:42.165Z,40.70
2019-03-23T16:07:10.748Z,46.63
2019-03-23T16:09:39.306Z,51.13
2019-03-23T16:12:07.993Z,71.93
2019-03-23T16:14:36.493Z,82.77
2019-03-23T16:17:05.123Z,80.77
2019-03-23T16:19:33.725Z,82.70
2019-03-23T16:22:02.376Z,79.80
2019-03-23T16:24:30.926Z,82.90
2019-03-23T16:26:59.612Z,80.03
2019-03-23T16:29:28.182Z,78.43
2019-03-23T16:31:56.925Z,79.77
2019-03-23T16:34:25.543Z,79.50
2019-03-23T16:36:54.185Z,85.50
2019-03-23T16:39:22.801Z,87.23
2019-03-23T16:41:51.352Z,79.93
2019-03-23T16:44:19.929Z,91.83
2019-03-23T16:46:49.140Z,106.17
2019-03-23T16:49:17.766Z,116.97
2019-03-23T16:51:46.368Z,97.50
2019-03-23T16:54:14.914Z,96.73
2019-03-23T16:56:43.675Z,102.07
2019-03-23T16:59:12.323Z,113.30
2019-03-23T17:01:41.255Z,104.67
2019-03-23T17:04:09.806Z,109.03
2019-03-23T17:06:45.981Z,110.43
2019-03-23T17:09:08.581Z,117.97
2019-03-23T17:11:37.205Z,117.93
2019-03-23T17:14:05.759Z,129.30
2019-03-23T17:16:34.337Z,118.60
2019-03-23T17:19:02.894Z,125.97
2019-03-23T17:21:31.447Z,133.37
2019-03-23T17:24:02.454Z,128.53
2019-03-23T17:26:31.099Z,133.20
2019-03-23T17:28:59.645Z,133.17
2019-03-23T17:31:28.234Z,136.83
2019-03-23T17:33:56.718Z,140.07
2019-03-23T17:36:25.266Z,140.30
2019-03-23T17:38:53.921Z,137.67
2019-03-23T17:41:22.470Z,143.40
2019-03-23T17:43:51.068Z,133.27
2019-03-23T17:46:19.871Z,138.27
2019-03-23T17:48:48.518Z,127.03
2019-03-23T17:51:17.077Z,140.60
2019-03-23T17:53:45.653Z,137.00
2019-03-23T17:56:14.236Z,117.37
2019-03-23T17:58:42.781Z,99.20
2019-03-23T18:01:19.370Z,94.93
2019-03-23T18:03:44.238Z,98.90
2019-03-23T18:06:12.897Z,93.10
2019-03-23T18:08:41.570Z,90.20
2019-03-23T18:11:10.186Z,83.67
2019-03-23T18:13:38.887Z,85.53
2019-03-23T18:16:07.457Z,77.43
2019-03-23T18:18:35.997Z,79.47
2019-03-23T18:21:04.617Z,73.93
2019-03-23T18:23:33.265Z,77.07
2019-03-23T18:26:01.818Z,69.93
2019-03-23T18:28:30.435Z,70.70
2019-03-23T18:30:59.079Z,74.80
2019-03-23T18:33:27.690Z,75.60
2019-03-23T18:35:56.549Z,69.83
2019-03-23T18:38:25.119Z,77.40
2019-03-23T18:40:53.729Z,73.27
2019-03-23T18:43:27.418Z,80.77
2019-03-23T18:45:52.661Z,81.57
2019-03-23T18:48:21.198Z,82.77
2019-03-23T18:50:49.973Z,79.07
2019-03-23T18:53:18.675Z,83.93
2019-03-23T18:55:47.290Z,82.20
2019-03-23T18:58:15.821Z,73.87
2019-03-23T19:00:44.469Z,76.77
2019-03-23T19:03:13.157Z,81.67
2019-03-23T19:05:41.694Z,85.83
2019-03-23T19:08:11.939Z,86.13
2019-03-23T19:10:40.693Z,93.80
2019-03-23T19:13:09.197Z,89.70
2019-03-23T19:15:37.838Z,86.10
2019-03-23T19:18:07.399Z,88.33
2019-03-23T19:20:36.000Z,82.33
2019-03-23T19:23:04.842Z,81.97
2019-03-23T19:25:33.528Z,87.23
2019-03-23T19:28:03.358Z,81.03
2019-03-23T19:30:31.993Z,85.73
2019-03-23T19:33:00.600Z,75.50
2019-03-23T19:35:29.071Z,73.20
2019-03-23T19:37:57.651Z,77.57
2019-03-23T19:40:26.265Z,77.47
2019-03-23T19:42:54.951Z,88.83
2019-03-23T19:45:23.589Z,86.33
2019-03-23T19:47:52.129Z,83.00
2019-03-23T19:50:20.830Z,86.87
2019-03-23T19:52:49.477Z,90.57
2019-03-23T19:55:18.081Z,79.80
2019-03-23T19:57:48.505Z,88.00
2019-03-23T20:00:17.013Z,94.40
2019-03-23T20:02:45.558Z,88.63
2019-03-23T20:05:14.437Z,87.00
2019-03-23T20:07:42.937Z,88.93
2019-03-23T20:10:11.890Z,95.30
2019-03-23T20:12:40.365Z,88.13
2019-03-23T20:15:09.384Z,96.10
2019-03-23T20:17:38.094Z,97.07
2019-03-23T20:20:09.951Z,95.47
2019-03-23T20:22:38.590Z,95.67
2019-03-23T20:25:07.671Z,93.43
2019-03-23T20:27:36.290Z,88.73
2019-03-23T20:30:07.253Z,85.30
2019-03-23T20:32:35.871Z,74.37
2019-03-23T20:35:06.049Z,63.23
2019-03-23T20:37:34.600Z,58.70
2019-03-23T20:40:04.609Z,46.63
2019-03-23T20:42:33.226Z,49.67
2019-03-23T20:45:01.798Z,51.40
2019-03-23T20:47:30.437Z,49.10
2019-03-23T20:49:59.123Z,53.10
2019-03-23T20:52:27.778Z,51.60
2019-03-23T20:54:56.498Z,49.20
2019-03-23T20:57:24.974Z,48.97
2019-03-23T20:59:53.518Z,44.93
2019-03-23T21:02:22.365Z,44.77
2019-03-23T21:04:50.906Z,42.67
2019-03-23T21:07:19.522Z,42.70
2019-03-23T21:09:48.136Z,43.33
2019-03-23T21:12:16.713Z,44.40
2019-03-23T21:14:45.187Z,45.37
2019-03-23T21:17:13.874Z,45.07
2019-03-23T21:19:42.378Z,46.53
2019-03-23T21:22:10.991Z,46.97
2019-03-23T21:24:39.535Z,44.67
2019-03-23T21:27:08.139Z,43.03
2019-03-23T21:29:36.782Z,47.97
2019-03-23T21:32:05.539Z,48.53
2019-03-23T21:34:34.078Z,41.07
2019-03-23T21:37:02.593Z,39.40
2019-03-23T21:39:31.238Z,36.67
2019-03-23T21:41:59.889Z,48.93
2019-03-23T21:44:31.171Z,44.63
2019-03-23T21:46:58.646Z,45.33
2019-03-23T21:49:27.256Z,38.73
2019-03-23T21:51:55.998Z,39.83
2019-03-23T21:54:24.570Z,46.57
2019-03-23T21:56:53.114Z,45.77
2019-03-23T21:59:21.710Z,55.33
2019-03-23T22:01:50.259Z,50.27
2019-03-23T22:04:18.800Z,48.20
2019-03-23T22:06:47.449Z,38.80
2019-03-23T22:09:16.146Z,41.40
2019-03-23T22:11:44.769Z,50.90
2019-03-23T22:14:13.411Z,48.87
2019-03-23T22:16:41.954Z,42.63
2019-03-23T22:19:10.572Z,50.67
2019-03-23T22:21:39.074Z,44.30
2019-03-23T22:24:07.559Z,49.23
2019-03-23T22:26:36.102Z,53.03
2019-03-23T22:29:04.750Z,46.33
2019-03-23T22:31:33.303Z,43.53
2019-03-23T22:34:02.002Z,60.23
2019-03-23T22:36:30.582Z,64.60
2019-03-23T22:38:59.132Z,70.30
2019-03-23T22:41:27.691Z,87.30
2019-03-23T22:43:56.268Z,110.70
2019-03-23T22:46:24.809Z,99.00
2019-03-23T22:48:54.763Z,173.87
2019-03-23T22:51:23.229Z,177.73
2019-03-23T22:53:51.705Z,128.63
2019-03-23T22:56:20.281Z,128.13
2019-03-23T22:58:48.825Z,91.73
2019-03-23T23:01:17.705Z,93.93
2019-03-23T23:03:46.270Z,88.70
2019-03-23T23:06:14.964Z,112.70
2019-03-23T23:08:43.514Z,145.43
2019-03-23T23:11:12.202Z,149.20
2019-03-23T23:13:40.813Z,136.80
2019-03-23T23:16:09.328Z,114.03
2019-03-23T23:18:37.942Z,87.37
2019-03-23T23:21:06.617Z,83.57
2019-03-23T23:23:35.128Z,72.37
2019-03-23T23:26:03.811Z,80.17
2019-03-23T23:28:32.420Z,71.87
2019-03-23T23:31:00.924Z,58.70
2019-03-23T23:33:29.461Z,61.87
2019-03-23T23:35:58.009Z,53.90
2019-03-23T23:38:26.654Z,50.87
2019-03-23T23:40:55.197Z,58.27
2019-03-23T23:43:23.745Z,59.27
2019-03-23T23:45:52.289Z,55.80
2019-03-23T23:48:20.761Z,51.20
2019-03-23T23:50:49.330Z,55.27
2019-03-23T23:53:17.942Z,48.83
2019-03-23T23:55:46.482Z,53.23
2019-03-23T23:58:14.982Z,51.20
